Time;durP1;ratioP1;P1;durP2;ratioP2;P2;SDS_P1;SDS_P2;PMS_P1;PMS_P2;Temp;Humidity;BMP_temperature;BMP_pressure;BME280_temperature;BME280_humidity;BME280_pressure;Samples;Min_cycle;Max_cycle;Signal;HPM_P1;HPM_P2
2022/12/13 00:01:29;;;;;;;5.43;3.05;;;-1.30;99.90;;;-1.49;82.36;100181.81;4974175;28;20207;-65
2022/12/13 00:03:58;;;;;;;6.82;3.83;;;-1.30;99.90;;;-1.61;82.70;100184.75;4972478;28;20260;-63
2022/12/13 00:06:27;;;;;;;6.20;4.35;;;-1.30;99.90;;;-1.57;82.77;100174.38;4973524;28;20279;-63
2022/12/13 00:08:53;;;;;;;10.23;5.35;;;-1.30;99.90;;;-1.74;83.76;100175.75;4973550;28;20200;-64
2022/12/13 00:11:20;;;;;;;16.63;6.55;;;-1.40;99.90;;;-1.79;84.03;100175.06;4973215;28;20520;-65
2022/12/13 00:13:48;;;;;;;7.60;5.20;;;-1.40;99.90;;;-1.82;84.09;100175.97;4972682;28;20283;-64
2022/12/13 00:16:18;;;;;;;12.27;6.10;;;-1.50;99.90;;;-1.74;82.58;100171.47;4971608;28;20588;-64
2022/12/13 00:18:54;;;;;;;8.52;4.65;;;-1.50;99.90;;;-1.71;82.87;100173.94;4971908;28;20671;-64
2022/12/13 00:21:25;;;;;;;10.98;5.40;;;-1.50;99.90;;;-1.67;82.24;100170.41;4971483;28;20201;-65
2022/12/13 00:23:52;;;;;;;1.27;1.05;;;-1.40;99.90;;;-1.72;82.02;100176.53;4971517;28;20205;-64
2022/12/13 00:26:31;;;;;;;6.22;3.35;;;-1.40;99.90;;;-1.71;80.98;100161.16;4955121;28;20259;-63
2022/12/13 00:29:00;;;;;;;9.93;5.43;;;-1.50;99.90;;;-1.72;81.69;100145.84;4971933;28;20211;-63
2022/12/13 00:31:30;;;;;;;12.70;5.82;;;-1.50;99.90;;;-1.63;80.50;100155.81;4973028;28;20669;-64
2022/12/13 00:34:17;;;;;;;3.55;2.45;;;-1.50;99.90;;;-1.85;81.82;100150.50;4973597;28;20212;-64
2022/12/13 00:36:45;;;;;;;9.30;5.07;;;-1.50;99.90;;;-1.70;81.37;100147.47;4972514;28;20213;-63
2022/12/13 00:39:15;;;;;;;7.45;5.13;;;-1.50;99.90;;;-1.87;82.50;100149.69;4944502;28;20201;-63
2022/12/13 00:41:43;;;;;;;10.80;5.60;;;-1.60;99.90;;;-1.82;82.65;100147.00;4966122;28;20287;-64
2022/12/13 00:44:12;;;;;;;9.25;4.00;;;-1.60;99.90;;;-1.90;83.12;100152.34;4972464;28;20207;-63
2022/12/13 00:46:40;;;;;;;11.32;5.15;;;-1.60;99.90;;;-1.81;82.35;100154.63;4973707;28;20207;-64
2022/12/13 00:49:09;;;;;;;11.48;5.90;;;-1.60;99.90;;;-1.86;83.87;100156.50;4971685;28;20223;-64
2022/12/13 00:51:36;;;;;;;11.20;6.07;;;-1.60;99.90;;;-1.97;84.34;100145.75;4965637;28;20662;-64
2022/12/13 00:54:04;;;;;;;10.75;6.75;;;-1.60;99.90;;;-1.93;84.60;100147.31;4964506;28;20205;-65
2022/12/13 00:56:32;;;;;;;17.27;7.13;;;-1.70;99.90;;;-1.90;85.66;100149.81;4969452;28;20678;-64
2022/12/13 00:58:59;;;;;;;13.18;6.53;;;-1.60;99.90;;;-1.89;85.16;100140.38;4973497;28;20287;-63
2022/12/13 01:01:32;;;;;;;12.00;6.60;;;-1.60;99.90;;;-1.91;85.52;100143.00;4979868;28;20211;-63
2022/12/13 01:04:02;;;;;;;11.77;4.97;;;-1.60;99.90;;;-1.83;85.55;100143.59;4970861;28;20204;-64
2022/12/13 01:06:42;;;;;;;7.85;3.30;;;-1.60;99.90;;;-1.71;85.57;100148.38;4972102;28;20201;-64
2022/12/13 01:09:25;;;;;;;11.05;5.20;;;-1.60;99.90;;;-1.72;84.24;100140.72;4970690;28;20204;-63
2022/12/13 01:12:00;;;;;;;8.77;4.55;;;-1.50;99.90;;;-1.83;84.07;100147.91;4966949;28;20309;-64
2022/12/13 01:14:28;;;;;;;11.15;5.38;;;-1.60;99.90;;;-1.93;85.14;100142.22;4971666;28;20197;-64
2022/12/13 01:16:55;;;;;;;7.63;4.40;;;-1.60;99.90;;;-1.77;83.30;100143.41;4971836;28;20267;-64
2022/12/13 01:19:24;;;;;;;7.45;4.45;;;-1.60;99.90;;;-1.77;82.48;100145.97;4971342;28;20344;-63
2022/12/13 01:22:00;;;;;;;7.55;4.15;;;-1.60;99.90;;;-2.00;83.27;100150.91;4972719;28;20726;-64
2022/12/13 01:24:28;;;;;;;13.55;5.22;;;-1.70;99.90;;;-1.95;82.56;100154.19;4971832;28;20259;-65
2022/12/13 01:26:55;;;;;;;3.22;2.15;;;-1.60;99.90;;;-1.81;81.47;100153.81;4972976;28;20267;-64
2022/12/13 01:29:24;;;;;;;11.85;4.43;;;-1.60;99.90;;;-1.77;82.08;100157.94;4970521;28;20205;-64
2022/12/13 01:31:53;;;;;;;9.60;4.18;;;-1.60;99.90;;;-1.72;81.82;100156.91;4971684;28;20224;-64
2022/12/13 01:34:21;;;;;;;5.47;3.85;;;-1.60;99.90;;;-1.71;81.65;100150.09;4970932;28;20574;-64
2022/12/13 01:36:54;;;;;;;11.73;5.38;;;-1.60;99.90;;;-1.74;82.00;100162.97;4971751;28;20596;-65
2022/12/13 01:39:25;;;;;;;13.50;6.18;;;-1.50;99.90;;;-1.85;82.71;100160.72;4957981;28;20227;-65
2022/12/13 01:42:02;;;;;;;12.25;5.72;;;-1.60;99.90;;;-1.91;83.50;100157.50;4971317;28;20220;-65
2022/12/13 01:44:56;;;;;;;16.17;7.85;;;-1.60;99.90;;;-2.05;84.62;100152.78;4970561;28;20578;-64
2022/12/13 01:47:37;;;;;;;12.30;6.43;;;-1.70;99.90;;;-2.15;85.65;100147.97;4971819;28;20212;-65
2022/12/13 01:50:30;;;;;;;13.73;6.57;;;-1.80;99.90;;;-2.18;86.54;100150.63;4970169;28;20570;-63
2022/12/13 01:52:59;;;;;;;16.63;8.43;;;-1.80;99.90;;;-2.11;87.19;100157.25;4936307;29;20725;-64
2022/12/13 01:55:31;;;;;;;18.05;8.15;;;-1.80;99.90;;;-2.28;88.07;100139.81;4965095;28;20204;-64
2022/12/13 01:58:02;;;;;;;16.77;7.57;;;-1.90;99.90;;;-2.35;88.71;100133.19;4968200;28;20228;-62
2022/12/13 02:00:32;;;;;;;16.35;8.25;;;-1.90;99.90;;;-2.32;89.19;100143.31;4953187;28;20691;-64
2022/12/13 02:03:01;;;;;;;19.80;8.63;;;-2.00;99.90;;;-2.39;89.97;100144.38;4954440;28;20263;-64
2022/12/13 02:05:41;;;;;;;16.17;7.00;;;-2.00;99.90;;;-2.42;90.84;100139.34;4971246;28;20197;-65
2022/12/13 02:08:10;;;;;;;12.55;6.80;;;-2.10;99.90;;;-2.37;90.52;100134.97;4958589;28;20212;-63
2022/12/13 02:10:38;;;;;;;15.82;8.48;;;-2.10;99.90;;;-2.49;91.06;100130.16;4976002;28;20254;-64
2022/12/13 02:13:05;;;;;;;20.83;9.60;;;-2.10;99.90;;;-2.54;92.10;100134.56;4958483;28;20220;-65
2022/12/13 02:15:54;;;;;;;14.07;7.25;;;-2.10;99.90;;;-2.44;91.35;100124.06;4968106;28;20263;-63
2022/12/13 02:18:59;;;;;;;13.88;7.15;;;-2.10;99.90;;;-2.51;91.01;100125.09;4974093;28;20743;-64
2022/12/13 02:21:47;;;;;;;14.90;7.85;;;-2.10;99.90;;;-2.64;91.75;100128.03;4913369;29;20690;-63
2022/12/13 02:24:47;;;;;;;15.80;8.05;;;-2.20;99.90;;;-2.68;92.01;100126.41;4906804;29;20301;-65
2022/12/13 02:27:49;;;;;;;11.13;5.90;;;-2.20;99.90;;;-2.52;90.60;100127.72;4945086;28;20677;-64
2022/12/13 02:30:38;;;;;;;12.18;7.55;;;-2.20;99.90;;;-2.70;92.06;100131.56;4957685;28;20263;-63
2022/12/13 02:33:45;;;;;;;17.83;6.68;;;-2.20;99.90;;;-2.68;92.35;100134.06;4973940;28;20224;-64
2022/12/13 02:36:48;;;;;;;14.10;6.55;;;-2.30;99.90;;;-2.59;91.04;100133.84;4956951;29;20260;-66
2022/12/13 02:39:23;;;;;;;12.88;6.45;;;-2.20;99.90;;;-2.52;91.28;100136.22;4966044;28;20275;-63
2022/12/13 02:42:13;;;;;;;11.77;6.15;;;-2.20;99.90;;;-2.50;91.21;100138.72;4976015;28;20644;-64
2022/12/13 02:45:20;;;;;;;13.30;7.78;;;-2.20;99.90;;;-2.41;89.50;100126.53;4957945;28;20499;-64
2022/12/13 02:47:53;;;;;;;16.23;8.00;;;-2.10;99.90;;;-2.66;91.04;100117.84;4970886;28;20204;-64
2022/12/13 02:50:22;;;;;;;17.60;8.90;;;-2.20;99.90;;;-2.67;90.81;100121.28;4952042;29;20197;-63
2022/12/13 02:52:50;;;;;;;21.83;9.30;;;-2.20;99.90;;;-2.92;93.02;100120.25;4939048;28;20229;-64
2022/12/13 02:55:17;;;;;;;18.20;8.80;;;-2.40;99.90;;;-2.89;92.63;100119.31;4940838;29;20209;-64
2022/12/13 02:57:45;;;;;;;16.67;8.70;;;-2.40;99.90;;;-2.95;92.91;100122.88;4974895;28;20267;-64
2022/12/13 03:00:48;;;;;;;18.80;8.50;;;-2.40;99.90;;;-2.76;91.82;100118.97;4965319;28;20629;-64
2022/12/13 03:03:20;;;;;;;15.60;8.20;;;-2.40;99.90;;;-2.90;91.69;100121.06;4965772;28;20216;-62
2022/12/13 03:06:34;;;;;;;13.80;7.10;;;-2.40;99.90;;;-2.86;91.25;100124.34;4953765;28;20547;-63
2022/12/13 03:09:37;;;;;;;17.40;7.72;;;-2.40;99.90;;;-2.79;91.33;100125.88;4970279;28;20208;-64
2022/12/13 03:15:34;;;;;;;17.50;7.72;;;-2.50;99.90;;;-2.72;91.00;100104.41;4941288;29;20201;-64
2022/12/13 03:18:16;;;;;;;21.88;11.68;;;-2.40;99.90;;;-2.92;92.38;100109.22;4966921;28;20228;-63
2022/12/13 03:20:54;;;;;;;25.25;11.73;;;-2.40;99.90;;;-2.78;91.62;100107.13;4965599;28;20204;-64
2022/12/13 03:23:22;;;;;;;19.98;10.70;;;-2.50;99.90;;;-2.76;91.13;100116.41;4970520;28;20221;-64
2022/12/13 03:25:54;;;;;;;18.13;9.02;;;-2.50;99.90;;;-2.85;91.51;100114.09;4974214;28;20212;-64
2022/12/13 03:28:22;;;;;;;23.88;10.90;;;-2.50;99.90;;;-2.84;91.78;100112.38;4956393;28;20204;-64
2022/12/13 03:30:49;;;;;;;14.38;8.07;;;-2.50;99.90;;;-2.79;91.41;100110.56;4974632;28;20207;-65
2022/12/13 03:33:16;;;;;;;20.15;9.98;;;-2.50;99.90;;;-2.86;91.37;100103.94;4974254;28;20788;-64
2022/12/13 03:35:43;;;;;;;19.75;9.50;;;-2.50;99.90;;;-2.85;91.06;100103.03;4973974;28;20669;-64
2022/12/13 03:38:14;;;;;;;30.10;11.68;;;-2.50;99.90;;;-2.77;90.59;100101.97;4956917;28;20260;-64
2022/12/13 03:40:53;;;;;;;22.80;10.23;;;-2.50;99.90;;;-2.76;91.08;100102.81;4968823;28;20208;-63
2022/12/13 03:43:20;;;;;;;19.02;10.52;;;-2.50;99.90;;;-2.96;91.00;100097.41;4936503;29;20243;-63
2022/12/13 03:45:50;;;;;;;17.27;8.10;;;-2.50;99.90;;;-2.98;91.28;100104.25;4939629;28;20744;-64
2022/12/13 03:48:18;;;;;;;20.83;8.63;;;-2.60;99.90;;;-3.15;91.18;100102.94;4956501;28;20218;-64
2022/12/13 03:50:51;;;;;;;13.45;7.10;;;-2.60;99.90;;;-3.07;91.24;100100.22;4973245;28;20724;-64
2022/12/13 03:53:19;;;;;;;23.10;12.57;;;-2.70;99.90;;;-2.99;90.62;100107.66;4973424;28;20712;-64
2022/12/13 03:55:59;;;;;;;21.77;9.52;;;-2.60;99.90;;;-2.91;89.58;100103.22;4958041;28;20227;-65
2022/12/13 03:58:28;;;;;;;25.05;10.73;;;-2.60;99.90;;;-3.07;90.17;100099.38;4955796;28;20255;-64
2022/12/13 04:01:01;;;;;;;16.95;8.20;;;-2.70;99.90;;;-2.97;89.81;100099.09;4971543;28;20197;-65
2022/12/13 04:03:28;;;;;;;16.55;9.35;;;-2.70;99.90;;;-2.87;89.79;100102.25;4972549;28;20257;-64
2022/12/13 04:05:55;;;;;;;19.83;9.05;;;-2.70;99.90;;;-2.98;89.27;100099.16;4972097;28;20200;-65
2022/12/13 04:08:21;;;;;;;16.35;8.05;;;-2.60;99.90;;;-2.94;89.64;100100.75;4970413;28;20204;-65
2022/12/13 04:10:48;;;;;;;15.30;7.20;;;-2.70;99.90;;;-3.06;90.15;100091.69;4971082;28;20215;-65
2022/12/13 04:13:33;;;;;;;16.23;9.23;;;-2.70;99.90;;;-3.10;90.85;100090.09;4972623;28;20232;-64
2022/12/13 04:16:01;;;;;;;19.13;9.23;;;-2.70;99.90;;;-3.07;90.83;100096.81;4962731;28;20196;-65
2022/12/13 04:18:29;;;;;;;22.70;10.10;;;-2.80;99.90;;;-3.28;91.86;100093.91;4939677;28;20219;-65
2022/12/13 04:20:56;;;;;;;18.13;8.20;;;-2.80;99.90;;;-3.15;91.07;100100.41;4950836;29;20585;-65
2022/12/13 04:23:23;;;;;;;19.80;8.98;;;-2.80;99.90;;;-3.47;92.48;100095.22;4953457;29;20285;-65
2022/12/13 04:25:50;;;;;;;18.13;8.45;;;-2.90;99.90;;;-3.36;91.54;100094.97;4966748;28;20624;-65
2022/12/13 04:28:17;;;;;;;18.15;8.00;;;-2.90;99.90;;;-3.32;92.00;100094.03;4970937;28;20211;-65
2022/12/13 04:30:49;;;;;;;20.27;8.85;;;-2.90;99.90;;;-3.20;91.32;100097.16;4969294;28;20205;-65
2022/12/13 04:33:24;;;;;;;14.48;7.30;;;-2.90;99.90;;;-3.12;90.08;100102.03;4968405;28;20774;-64
2022/12/13 04:35:54;;;;;;;15.98;7.60;;;-2.90;99.90;;;-3.38;91.46;100096.72;4971741;28;20207;-65
2022/12/13 04:38:20;;;;;;;16.85;8.10;;;-2.90;99.90;;;-3.36;91.29;100093.28;4971423;28;20275;-64
2022/12/13 04:40:47;;;;;;;19.67;8.80;;;-3.00;99.90;;;-3.34;91.13;100088.13;4971077;28;20205;-64
2022/12/13 04:43:17;;;;;;;15.18;7.93;;;-3.00;99.90;;;-3.59;91.88;100095.53;4971731;28;20228;-66
2022/12/13 04:45:47;;;;;;;19.70;9.57;;;-3.10;99.90;;;-3.59;92.00;100103.19;4971779;28;20679;-65
2022/12/13 04:48:21;;;;;;;16.50;8.45;;;-3.10;99.90;;;-3.62;91.95;100093.03;4972742;28;20345;-64
2022/12/13 04:50:58;;;;;;;18.98;10.02;;;-3.10;99.90;;;-3.60;91.21;100104.03;4972440;28;20605;-65
2022/12/13 04:53:28;;;;;;;21.38;9.23;;;-3.10;99.90;;;-3.64;91.79;100099.88;4947910;29;20316;-65
2022/12/13 04:55:56;;;;;;;17.75;10.23;;;-3.20;99.90;;;-3.62;91.20;100090.50;4956587;28;20248;-65
2022/12/13 04:58:23;;;;;;;21.00;10.15;;;-3.20;99.90;;;-3.54;90.29;100093.72;4958816;28;20233;-64
2022/12/13 05:00:56;;;;;;;21.55;9.75;;;-3.10;99.90;;;-3.61;90.87;100089.63;4971024;28;20544;-65
2022/12/13 05:03:23;;;;;;;22.65;10.73;;;-3.10;99.90;;;-3.59;90.78;100090.44;4972953;28;20776;-65
2022/12/13 05:05:50;;;;;;;21.42;10.45;;;-3.10;99.90;;;-3.56;91.04;100089.53;4971868;28;20729;-65
2022/12/13 05:08:17;;;;;;;16.33;8.05;;;-3.20;99.90;;;-3.63;91.51;100088.84;4971224;28;20215;-65
2022/12/13 05:10:44;;;;;;;20.10;9.82;;;-3.20;99.90;;;-3.64;91.35;100092.25;4971581;28;20391;-65
2022/12/13 05:13:11;;;;;;;18.65;8.45;;;-3.20;99.90;;;-3.68;91.05;100090.63;4968727;28;20230;-65
2022/12/13 05:15:37;;;;;;;20.48;9.05;;;-3.20;99.90;;;-3.69;91.39;100094.06;4969603;28;20202;-65
2022/12/13 05:18:06;;;;;;;16.42;8.40;;;-3.20;99.90;;;-3.70;90.89;100097.47;4966778;28;20235;-65
2022/12/13 05:20:39;;;;;;;19.50;8.57;;;-3.30;99.90;;;-3.67;90.42;100097.44;4970771;28;20241;-65
2022/12/13 05:23:06;;;;;;;19.50;8.35;;;-3.30;99.90;;;-3.64;90.14;100104.19;4954154;29;20702;-64
2022/12/13 05:25:35;;;;;;;17.63;8.30;;;-3.30;99.90;;;-3.69;90.52;100095.78;4954850;28;20204;-65
2022/12/13 05:28:04;;;;;;;23.00;10.02;;;-3.30;99.90;;;-3.62;89.87;100098.13;4955868;28;20223;-65
2022/12/13 05:30:51;;;;;;;24.08;10.68;;;-3.30;99.90;;;-3.69;90.08;100094.06;4971938;28;20209;-64
2022/12/13 05:33:18;;;;;;;18.90;9.52;;;-3.30;99.90;;;-3.64;89.09;100089.69;4972798;28;20655;-65
2022/12/13 05:35:46;;;;;;;20.00;10.48;;;-3.20;99.90;;;-3.67;90.51;100087.22;4971367;28;20234;-65
2022/12/13 05:38:13;;;;;;;17.20;9.50;;;-3.30;99.90;;;-3.66;90.11;100086.34;4970088;28;20591;-65
2022/12/13 05:40:40;;;;;;;18.60;9.52;;;-3.30;99.90;;;-3.67;89.64;100089.78;4970333;28;20202;-64
2022/12/13 05:43:09;;;;;;;20.58;11.50;;;-3.30;99.90;;;-3.83;90.33;100090.97;4971594;28;20242;-64
2022/12/13 05:45:47;;;;;;;18.23;9.45;;;-3.30;99.90;;;-3.81;90.30;100094.31;4955642;28;20217;-66
2022/12/13 05:48:15;;;;;;;17.50;9.75;;;-3.40;99.90;;;-3.87;90.49;100084.28;4972500;28;20600;-65
2022/12/13 05:50:51;;;;;;;18.45;9.80;;;-3.40;99.90;;;-3.91;90.37;100072.47;4966988;28;20656;-64
2022/12/13 05:53:38;;;;;;;18.15;9.45;;;-3.40;99.90;;;-3.90;90.61;100068.22;4966873;28;20782;-65
2022/12/13 05:56:06;;;;;;;17.80;9.63;;;-3.40;99.90;;;-3.97;90.61;100070.06;4965009;28;20250;-64
2022/12/13 05:58:33;;;;;;;19.65;9.52;;;-3.50;99.90;;;-3.95;90.31;100068.31;4951780;28;20233;-65
2022/12/13 06:01:12;;;;;;;17.30;9.40;;;-3.50;99.90;;;-4.05;90.64;100064.31;4958586;28;20202;-64
2022/12/13 06:03:40;;;;;;;19.33;9.20;;;-3.50;99.90;;;-3.86;90.39;100070.69;4972223;28;20282;-65
2022/12/13 06:06:10;;;;;;;18.63;9.05;;;-3.50;99.90;;;-3.89;90.27;100070.72;4971584;28;20202;-65
2022/12/13 06:08:37;;;;;;;21.92;11.30;;;-3.50;99.90;;;-3.95;90.16;100074.25;4971274;28;20259;-65
2022/12/13 06:11:09;;;;;;;23.13;11.88;;;-3.50;99.90;;;-3.92;89.52;100064.88;4971104;28;20227;-65
2022/12/13 06:13:58;;;;;;;19.55;10.30;;;-3.50;99.90;;;-3.85;89.43;100074.88;4971128;28;20763;-65
2022/12/13 06:16:27;;;;;;;23.75;11.93;;;-3.40;99.90;;;-3.98;89.99;100074.31;4971985;28;20203;-65
2022/12/13 06:18:55;;;;;;;23.25;12.50;;;-3.50;99.90;;;-4.07;90.33;100071.16;4970604;28;20238;-65
2022/12/13 06:21:31;;;;;;;19.10;10.23;;;-3.60;99.90;;;-4.09;90.74;100083.91;4971318;28;20199;-65
2022/12/13 06:24:16;;;;;;;25.23;10.60;;;-3.60;99.90;;;-3.98;90.03;100076.03;4971679;28;20721;-65
2022/12/13 06:26:43;;;;;;;22.88;12.20;;;-3.60;99.90;;;-4.00;90.33;100082.88;4966279;28;20232;-65
2022/12/13 06:29:17;;;;;;;18.92;11.13;;;-3.60;99.90;;;-3.90;89.47;100086.91;4952924;29;20720;-66
2022/12/13 06:31:56;;;;;;;21.20;11.25;;;-3.50;99.90;;;-4.06;90.09;100075.34;4956865;28;20234;-66
2022/12/13 06:34:32;;;;;;;17.38;9.40;;;-3.60;99.90;;;-4.13;90.27;100066.19;4971807;28;20215;-66
2022/12/13 06:37:00;;;;;;;22.02;11.25;;;-3.60;99.90;;;-3.97;89.85;100073.47;4960310;28;20203;-65
2022/12/13 06:39:28;;;;;;;19.88;9.23;;;-3.60;99.90;;;-4.00;89.87;100072.66;4958629;28;20766;-66
2022/12/13 06:42:09;;;;;;;7.95;5.40;;;-3.60;99.90;;;-3.95;89.63;100073.41;4970805;28;20301;-65
2022/12/13 06:44:36;;;;;;;22.38;10.32;;;-3.60;99.90;;;-4.06;89.60;100078.75;4953501;28;20214;-66
2022/12/13 06:47:03;;;;;;;16.90;8.48;;;-3.60;99.90;;;-4.11;89.73;100070.34;4959557;28;20199;-66
2022/12/13 06:49:40;;;;;;;18.00;8.98;;;-3.60;99.90;;;-4.03;89.81;100073.59;4956314;28;20208;-65
2022/12/13 06:52:11;;;;;;;20.65;10.65;;;-3.60;99.90;;;-4.03;89.55;100072.75;4972421;28;20718;-65
2022/12/13 06:54:38;;;;;;;14.80;7.93;;;-3.60;99.90;;;-4.18;90.58;100080.72;4974770;28;20206;-65
2022/12/13 06:57:05;;;;;;;23.92;12.35;;;-3.60;99.90;;;-4.18;90.41;100093.47;4972410;28;20209;-66
2022/12/13 06:59:32;;;;;;;20.67;10.68;;;-3.70;99.90;;;-4.10;90.80;100089.03;4974428;28;20273;-65
2022/12/13 07:01:59;;;;;;;19.25;9.20;;;-3.70;99.90;;;-4.03;89.92;100082.94;4980803;28;20233;-65
2022/12/13 07:04:30;;;;;;;20.40;10.07;;;-3.70;99.90;;;-4.01;89.59;100076.94;4978904;28;20744;-66
2022/12/13 07:06:57;;;;;;;23.90;12.88;;;-3.70;99.90;;;-4.00;89.35;100082.88;4964570;28;20210;-66
2022/12/13 07:09:30;;;;;;;12.48;6.25;;;-3.60;99.90;;;-3.95;88.31;100088.72;4958748;28;20289;-65
2022/12/13 07:11:57;;;;;;;18.45;9.15;;;-3.60;99.90;;;-3.98;88.38;100089.59;4974190;28;20606;-66
2022/12/13 07:14:24;;;;;;;20.13;9.93;;;-3.60;99.90;;;-3.92;88.43;100086.09;4973444;28;20216;-66
2022/12/13 07:16:50;;;;;;;2.38;2.17;;;-3.60;99.90;;;-3.77;87.96;100093.41;4957589;28;20261;-66
2022/12/13 07:19:17;;;;;;;10.70;5.57;;;-3.50;99.90;;;-3.95;88.95;100092.09;4975210;28;20233;-67
2022/12/13 07:21:50;;;;;;;9.75;5.10;;;-3.50;99.90;;;-3.83;88.24;100103.72;4975338;28;20304;-66
2022/12/13 07:24:17;;;;;;;13.63;7.10;;;-3.50;99.90;;;-3.78;87.68;100098.53;4974525;28;20202;-65
2022/12/13 07:26:44;;;;;;;8.75;5.45;;;-3.50;99.90;;;-3.67;87.38;100102.53;4972220;28;20212;-67
2022/12/13 07:29:10;;;;;;;21.67;9.38;;;-3.40;99.90;;;-3.68;87.77;100107.63;4973194;28;20211;-66
2022/12/13 07:31:37;;;;;;;12.82;6.13;;;-3.40;99.90;;;-3.62;87.28;100116.00;4972699;28;20591;-65
2022/12/13 07:34:04;;;;;;;9.55;4.63;;;-3.30;99.90;;;-3.38;86.14;100120.53;4975499;28;20204;-65
2022/12/13 07:36:31;;;;;;;13.80;7.25;;;-3.20;99.90;;;-3.43;87.16;100116.44;4973866;28;20637;-65
2022/12/13 07:38:58;;;;;;;16.75;8.50;;;-3.20;99.90;;;-3.27;85.65;100117.72;4974641;28;20284;-66
2022/12/13 07:41:26;;;;;;;18.67;8.98;;;-3.10;99.90;;;-3.32;86.23;100122.94;4974020;28;20197;-65
2022/12/13 07:43:54;;;;;;;14.48;7.70;;;-3.10;99.90;;;-3.26;85.58;100129.63;4974952;28;20226;-64
2022/12/13 07:46:22;;;;;;;18.30;7.82;;;-3.00;99.90;;;-3.30;86.38;100139.03;4956164;28;20282;-64
2022/12/13 07:49:04;;;;;;;18.33;8.80;;;-3.00;99.90;;;-2.96;84.93;100131.41;4973008;28;20204;-64
2022/12/13 07:51:33;;;;;;;18.13;7.63;;;-2.90;99.90;;;-2.98;84.81;100134.88;4973291;28;20692;-64
2022/12/13 07:54:01;;;;;;;17.75;8.48;;;-2.70;99.90;;;-2.73;84.31;100130.84;4974665;28;20208;-65
2022/12/13 07:56:34;;;;;;;16.83;9.05;;;-2.70;99.90;;;-2.60;83.64;100127.09;4974119;28;20197;-64
2022/12/13 07:59:01;;;;;;;7.75;5.18;;;-2.50;99.90;;;-2.38;82.75;100123.06;4973627;28;20224;-64
2022/12/13 08:01:30;;;;;;;17.45;9.98;;;-2.40;99.90;;;-2.37;82.04;100114.53;4966879;28;20232;-65
2022/12/13 08:03:57;;;;;;;15.25;7.68;;;-2.30;99.90;;;-2.23;81.92;100106.44;4952723;28;20204;-64
2022/12/13 08:06:24;;;;;;;16.95;6.53;;;-2.20;99.90;;;-2.19;81.76;100108.88;4962614;28;20662;-65
2022/12/13 08:08:57;;;;;;;19.33;9.63;;;-2.10;99.90;;;-2.22;81.98;100119.22;4968208;28;20262;-64
2022/12/13 08:11:24;;;;;;;22.58;11.32;;;-2.10;99.90;;;-2.30;81.38;100125.41;4972384;28;20216;-64
2022/12/13 08:13:53;;;;;;;17.30;8.18;;;-2.10;99.90;;;-1.63;80.56;100131.06;4972824;28;20239;-66
2022/12/13 08:16:20;;;;;;;20.73;9.57;;;-1.80;99.90;;;-0.72;76.19;100138.34;4956662;28;20254;-65
2022/12/13 08:18:55;;;;;;;14.95;7.10;;;-1.30;99.90;;;0.22;73.08;100129.81;4973489;28;20261;-65
2022/12/13 08:21:35;;;;;;;22.90;9.75;;;-0.70;99.90;;;0.77;70.65;100129.34;4973013;28;20196;-65
2022/12/13 08:24:23;;;;;;;18.08;9.43;;;-0.10;99.90;;;1.07;68.43;100125.56;4972831;28;20205;-66
2022/12/13 08:26:50;;;;;;;19.40;9.75;;;0.40;99.90;;;1.44;67.10;100133.41;4973380;28;20573;-66
2022/12/13 08:29:17;;;;;;;16.17;8.35;;;0.60;99.90;;;1.64;66.06;100124.81;4973140;28;20208;-65
2022/12/13 08:32:05;;;;;;;19.17;9.80;;;0.90;99.90;;;1.48;66.73;100134.09;4956657;28;20257;-65
2022/12/13 08:34:32;;;;;;;20.77;10.27;;;1.00;99.90;;;1.79;65.01;100129.28;4974042;28;20259;-65
2022/12/13 08:36:59;;;;;;;17.63;9.00;;;1.20;99.90;;;1.83;65.37;100125.69;4972031;28;20226;-65
2022/12/13 08:39:31;;;;;;;18.75;9.57;;;1.20;99.90;;;1.63;65.03;100128.31;4972927;28;20223;-65
2022/12/13 08:42:05;;;;;;;20.65;10.40;;;1.20;99.90;;;1.45;65.32;100129.91;4972816;28;20228;-65
2022/12/13 08:44:48;;;;;;;23.60;10.77;;;1.20;99.90;;;1.54;66.02;100126.97;4973165;28;20593;-65
2022/12/13 08:47:21;;;;;;;18.77;9.93;;;1.20;99.90;;;1.84;65.13;100137.66;4972750;28;20712;-64
2022/12/13 08:50:00;;;;;;;20.90;12.18;;;1.30;99.90;;;1.61;64.71;100135.25;4970628;28;20200;-65
2022/12/13 08:52:34;;;;;;;17.55;9.55;;;1.40;99.90;;;2.50;61.44;100136.34;4971434;28;20228;-64
2022/12/13 08:55:13;;;;;;;19.15;10.00;;;1.80;99.90;;;2.81;61.00;100130.56;4972235;28;20211;-64
2022/12/13 08:57:41;;;;;;;19.25;10.50;;;2.00;99.90;;;2.14;62.17;100131.16;4971173;28;20223;-64
2022/12/13 09:00:13;;;;;;;19.70;10.35;;;1.90;99.90;;;2.13;62.01;100131.22;4968736;28;20228;-64
2022/12/13 09:02:41;;;;;;;20.80;10.93;;;1.90;99.90;;;2.43;60.87;100131.56;4951966;28;20221;-64
2022/12/13 09:05:09;;;;;;;19.15;10.50;;;1.90;99.90;;;1.73;63.30;100128.72;4969160;28;20676;-64
2022/12/13 09:07:40;;;;;;;20.35;9.60;;;1.60;99.90;;;0.77;66.61;100124.22;4966230;28;20469;-63
2022/12/13 09:10:09;;;;;;;19.17;10.65;;;1.00;99.90;;;0.50;67.89;100123.59;4972211;28;20223;-64
2022/12/13 09:12:55;;;;;;;20.38;9.52;;;0.70;99.90;;;-0.04;69.27;100126.50;4956226;28;20295;-64
2022/12/13 09:15:30;;;;;;;26.65;11.32;;;0.30;99.90;;;-0.14;70.70;100127.75;4970734;28;20207;-68
2022/12/13 09:18:00;;;;;;;14.32;7.60;;;0.00;99.90;;;-0.17;71.50;100127.03;4971218;28;20206;-64
2022/12/13 09:20:32;;;;;;;15.30;8.23;;;-0.20;99.90;;;-0.28;71.85;100139.41;4961644;28;20250;-64
2022/12/13 09:23:10;;;;;;;20.63;10.38;;;-0.20;99.90;;;-0.52;73.07;100143.66;4962331;28;20291;-64
2022/12/13 09:25:57;;;;;;;21.95;11.02;;;-0.40;99.90;;;-0.45;73.16;100141.72;4966939;28;20264;-64
2022/12/13 09:28:34;;;;;;;20.40;10.80;;;-0.50;99.90;;;-1.15;75.39;100141.47;4971480;28;20206;-64
2022/12/13 09:31:09;;;;;;;19.65;11.10;;;-0.60;99.90;;;-1.28;76.24;100139.38;4968479;28;20291;-64
2022/12/13 09:33:36;;;;;;;15.68;5.60;;;-0.80;99.90;;;-1.23;76.54;100146.03;4954739;28;20227;-64
2022/12/13 09:36:11;;;;;;;19.92;8.88;;;-1.00;99.90;;;-1.17;76.09;100145.00;4959499;28;20260;-64
2022/12/13 09:38:38;;;;;;;16.85;8.07;;;-1.00;99.90;;;-1.39;78.20;100139.72;4966017;28;20211;-65
2022/12/13 09:41:28;;;;;;;20.27;9.68;;;-1.10;99.90;;;-1.46;78.38;100138.22;4967398;28;20251;-64
2022/12/13 09:44:21;;;;;;;21.75;9.52;;;-1.20;99.90;;;-1.37;78.21;100137.09;4955961;28;20200;-64
2022/12/13 09:47:04;;;;;;;14.48;7.53;;;-1.30;99.90;;;-1.20;78.37;100139.97;4946128;29;20279;-64
2022/12/13 09:49:43;;;;;;;19.67;9.30;;;-1.20;99.90;;;-1.29;78.43;100123.19;4952225;28;20211;-64
2022/12/13 09:52:20;;;;;;;12.80;5.88;;;-1.20;99.90;;;-1.14;77.83;100135.50;4965771;28;20216;-64
2022/12/13 09:54:52;;;;;;;18.13;8.10;;;-1.10;99.90;;;-1.07;77.21;100144.66;4953393;28;20216;-64
2022/12/13 09:57:39;;;;;;;21.33;10.15;;;-1.10;99.90;;;-1.07;77.73;100146.38;4970082;28;20211;-64
2022/12/13 10:00:13;;;;;;;6.22;3.63;;;-1.00;99.90;;;-0.96;77.08;100141.75;4966671;28;20221;-64
2022/12/13 10:02:50;;;;;;;20.95;10.02;;;-1.00;99.90;;;-1.18;77.70;100135.63;4964361;28;20637;-64
2022/12/13 10:05:36;;;;;;;18.65;9.07;;;-1.00;99.90;;;-0.91;77.67;100137.28;4954295;28;20215;-64
2022/12/13 10:08:15;;;;;;;19.63;10.40;;;-0.90;99.90;;;-0.99;76.92;100132.44;4968327;28;20245;-66
2022/12/13 10:10:43;;;;;;;15.52;7.68;;;-0.90;99.90;;;-1.10;77.92;100123.41;4947308;28;20212;-64
2022/12/13 10:13:46;;;;;;;18.55;9.38;;;-1.00;99.90;;;-1.11;78.66;100124.31;4969858;28;20224;-64
2022/12/13 10:16:42;;;;;;;22.30;11.32;;;-1.00;99.90;;;-1.20;78.84;100122.06;4971621;28;20606;-64
2022/12/13 10:19:31;;;;;;;21.02;10.23;;;-1.00;99.90;;;-1.37;78.99;100108.97;4952811;28;20206;-64
2022/12/13 10:21:59;;;;;;;22.40;12.05;;;-1.10;99.90;;;-1.22;78.19;100106.75;4962663;28;20229;-64
2022/12/13 10:24:54;;;;;;;12.60;5.30;;;-1.10;99.90;;;-1.35;79.98;100102.91;4952348;28;20208;-64
2022/12/13 10:27:39;;;;;;;25.40;11.52;;;-1.20;99.90;;;-1.16;78.90;100100.59;4972678;28;20208;-64
2022/12/13 10:30:21;;;;;;;23.38;11.88;;;-1.20;99.90;;;-1.10;78.89;100093.53;4965903;28;20205;-64
2022/12/13 10:33:02;;;;;;;19.15;9.88;;;-1.10;99.90;;;-1.13;79.61;100096.19;4972911;28;20275;-64
2022/12/13 10:35:33;;;;;;;18.70;10.60;;;-1.00;99.90;;;-1.10;78.52;100105.50;4958620;28;20286;-64